Terminal Aerodrome Forecast
Issued by NWS Sioux Falls, SD

Home | Current Version | Previous Version | Graphics & Text | Print | Product List | Glossary Off
Versions: 1 2 3 4 5 6 7 8 9 10 11 12 13 14 15 16 17

000
FTUS43 KFSD 212333
TAFFSD
TAF
KFSD 212333Z 2200/2224 31017G25KT P6SM FEW050
     FM220200 22006KT P6SM SCT150
     FM221500 27006KT P6SM SCT100
     FM222000 31009KT P6SM BKN050
     FM222100 32010KT P6SM -SHRA OVC040=

USA.gov is the U.S. government's official web portal to all federal, state and local government web resources and services.